Time;durP1;ratioP1;P1;durP2;ratioP2;P2;SDS_P1;SDS_P2;PMS_P1;PMS_P2;Temp;Humidity;BMP_temperature;BMP_pressure;BME280_temperature;BME280_humidity;BME280_pressure;Samples;Min_cycle;Max_cycle;Signal;HPM_P1;HPM_P2
2023/10/18 00:02:06;;;;;;;;;;;;;;;;;;6148848;23;19916;-86
2023/10/18 00:04:41;;;;;;;;;;;;;;;;;;6174814;23;19935;-86
2023/10/18 00:07:07;;;;;;;;;;;;;;;;;;6176536;23;19919;-85
2023/10/18 00:09:48;;;;;;;;;;;;;;;;;;6150506;23;20276;-86
2023/10/18 00:12:18;;;;;;;;;;;;;;;;;;6151510;23;19919;-86
2023/10/18 00:14:44;;;;;;;;;;;;;;;;;;6148611;23;19927;-86
2023/10/18 00:17:10;;;;;;;;;;;;;;;;;;6175377;23;20515;-87
2023/10/18 00:19:45;;;;;;;;;;;;;;;;;;6171686;23;19919;-86
2023/10/18 00:22:12;;;;;;;;;;;;;;;;;;6176542;23;19919;-86
2023/10/18 00:24:39;;;;;;;;;;;;;;;;;;6176347;23;19924;-85
2023/10/18 00:27:09;;;;;;;;;;;;;;;;;;6151172;23;19995;-86
2023/10/18 00:29:35;;;;;;;;;;;;;;;;;;6202983;23;20046;-85
2023/10/18 00:32:05;;;;;;;;;;;;;;;;;;6149429;23;19920;-86
2023/10/18 00:34:32;;;;;;;;;;;;;;;;;;6175629;23;20412;-85
2023/10/18 00:36:58;;;;;;;;;;;;;;;;;;6149344;23;19924;-86
2023/10/18 00:39:27;;;;;;;;;;;;;;;;;;6150954;23;19926;-86
2023/10/18 00:42:23;;;;;;;;;;;;;;;;;;6147156;23;19920;-86
2023/10/18 00:47:33;;;;;;;;;;;;;;;;;;6175194;23;19920;-86
2023/10/18 00:50:02;;;;;;;;;;;;;;;;;;6175044;23;19994;-86
2023/10/18 00:52:30;;;;;;;;;;;;;;;;;;6151925;23;20388;-86
2023/10/18 00:54:56;;;;;;;;;;;;;;;;;;6151565;23;19938;-86
2023/10/18 00:57:24;;;;;;;;;;;;;;;;;;6175839;23;20393;-87
2023/10/18 00:59:52;;;;;;;;;;;;;;;;;;6149716;23;19924;-86
2023/10/18 01:02:19;;;;;;;;;;;;;;;;;;6176406;23;19927;-86
2023/10/18 01:04:46;;;;;;;;;;;;;;;;;;6175809;23;19916;-87
2023/10/18 01:07:14;;;;;;;;;;;;;;;;;;6151851;23;19920;-86
2023/10/18 01:09:48;;;;;;;;;;;;;;;;;;6174424;23;20347;-86
2023/10/18 01:12:15;;;;;;;;;;;;;;;;;;6173627;23;19919;-86
2023/10/18 01:14:41;;;;;;;;;;;;;;;;;;6148253;23;19986;-86
2023/10/18 01:17:08;;;;;;;;;;;;;;;;;;6173630;23;19923;-86
2023/10/18 01:19:34;;;;;;;;;;;;;;;;;;6151181;23;19920;-86
2023/10/18 01:22:00;;;;;;;;;;;;;;;;;;6150613;23;20378;-86
2023/10/18 01:24:26;;;;;;;;;;;;;;;;;;6153130;23;20310;-86
2023/10/18 01:26:53;;;;;;;;;;;;;;;;;;6149416;23;20311;-86
2023/10/18 01:29:25;;;;;;;;;;;;;;;;;;6149331;23;20337;-87
2023/10/18 01:31:54;;;;;;;;;;;;;;;;;;6147750;23;20244;-87
2023/10/18 01:34:20;;;;;;;;;;;;;;;;;;6150750;23;20312;-86
2023/10/18 01:36:46;;;;;;;;;;;;;;;;;;6149748;23;19935;-86
2023/10/18 01:39:18;;;;;;;;;;;;;;;;;;6153047;23;20006;-86
2023/10/18 01:41:46;;;;;;;;;;;;;;;;;;6151367;23;19919;-87
2023/10/18 01:44:18;;;;;;;;;;;;;;;;;;6154022;23;20019;-87
2023/10/18 01:46:48;;;;;;;;;;;;;;;;;;6147289;23;19920;-87
2023/10/18 01:49:21;;;;;;;;;;;;;;;;;;6178421;23;19927;-86
2023/10/18 01:51:47;;;;;;;;;;;;;;;;;;6150473;23;19927;-86
2023/10/18 01:54:16;;;;;;;;;;;;;;;;;;6175447;23;19920;-86
2023/10/18 01:56:42;;;;;;;;;;;;;;;;;;6148843;23;20027;-87
2023/10/18 01:59:08;;;;;;;;;;;;;;;;;;6176259;23;19948;-87
2023/10/18 02:01:34;;;;;;;;;;;;;;;;;;6149986;23;19920;-86
2023/10/18 02:04:00;;;;;;;;;;;;;;;;;;6176495;23;20029;-86
2023/10/18 02:06:29;;;;;;;;;;;;;;;;;;6176897;23;19935;-87
2023/10/18 02:08:55;;;;;;;;;;;;;;;;;;6151350;23;19920;-87
2023/10/18 02:11:21;;;;;;;;;;;;;;;;;;6153031;23;19959;-86
2023/10/18 02:13:47;;;;;;;;;;;;;;;;;;6149999;23;19920;-86
2023/10/18 02:16:19;;;;;;;;;;;;;;;;;;6174712;23;19924;-86
2023/10/18 02:18:48;;;;;;;;;;;;;;;;;;6151826;23;19916;-86
2023/10/18 02:21:16;;;;;;;;;;;;;;;;;;6150888;23;19947;-85
2023/10/18 02:23:46;;;;;;;;;;;;;;;;;;6150076;23;20281;-86
2023/10/18 02:26:31;;;;;;;;;;;;;;;;;;6151244;23;19921;-86
2023/10/18 02:29:05;;;;;;;;;;;;;;;;;;6149317;23;20319;-86
2023/10/18 02:31:33;;;;;;;;;;;;;;;;;;6152157;23;19955;-86
2023/10/18 02:34:04;;;;;;;;;;;;;;;;;;6174065;23;20001;-86
2023/10/18 02:36:38;;;;;;;;;;;;;;;;;;6151005;23;19919;-86
2023/10/18 02:39:05;;;;;;;;;;;;;;;;;;6153027;23;19923;-86
2023/10/18 02:41:31;;;;;;;;;;;;;;;;;;6152599;23;19978;-86
2023/10/18 02:43:58;;;;;;;;;;;;;;;;;;6174144;23;20376;-86
2023/10/18 02:46:24;;;;;;;;;;;;;;;;;;6151405;23;19922;-86
2023/10/18 02:48:56;;;;;;;;;;;;;;;;;;6176107;23;19927;-87
2023/10/18 02:51:26;;;;;;;;;;;;;;;;;;6153742;23;19916;-86
2023/10/18 02:54:16;;;;;;;;;;;;;;;;;;6150923;23;19920;-86
2023/10/18 02:56:45;;;;;;;;;;;;;;;;;;6149418;23;20351;-86
2023/10/18 02:59:13;;;;;;;;;;;;;;;;;;6152346;23;19986;-86
2023/10/18 03:01:43;;;;;;;;;;;;;;;;;;6174417;23;19920;-87
2023/10/18 03:04:09;;;;;;;;;;;;;;;;;;6175616;23;20313;-86
2023/10/18 03:06:35;;;;;;;;;;;;;;;;;;6152116;23;20269;-86
2023/10/18 03:09:05;;;;;;;;;;;;;;;;;;6152040;23;19926;-86
2023/10/18 03:11:32;;;;;;;;;;;;;;;;;;6150424;23;20359;-86
2023/10/18 03:14:06;;;;;;;;;;;;;;;;;;6149080;23;19920;-86
2023/10/18 03:16:46;;;;;;;;;;;;;;;;;;6148932;23;19924;-87
2023/10/18 03:19:21;;;;;;;;;;;;;;;;;;6152394;23;19990;-85
2023/10/18 03:21:49;;;;;;;;;;;;;;;;;;6173823;23;19955;-86
2023/10/18 03:24:19;;;;;;;;;;;;;;;;;;6151645;23;20003;-87
2023/10/18 03:26:45;;;;;;;;;;;;;;;;;;6148446;23;20339;-86
2023/10/18 03:29:11;;;;;;;;;;;;;;;;;;6175899;23;19920;-87
2023/10/18 03:31:40;;;;;;;;;;;;;;;;;;6174911;23;19942;-87
2023/10/18 03:34:13;;;;;;;;;;;;;;;;;;6151700;23;19962;-86
2023/10/18 03:37:00;;;;;;;;;;;;;;;;;;6170886;23;19959;-87
2023/10/18 03:39:25;;;;;;;;;;;;;;;;;;6175792;23;20427;-87
2023/10/18 03:41:51;;;;;;;;;;;;;;;;;;6149983;23;19926;-86
2023/10/18 03:44:30;;;;;;;;;;;;;;;;;;6153744;23;20402;-87
2023/10/18 03:47:24;;;;;;;;;;;;;;;;;;6149517;23;19923;-87
2023/10/18 03:49:58;;;;;;;;;;;;;;;;;;6173104;23;20548;-87
2023/10/18 03:52:26;;;;;;;;;;;;;;;;;;6151292;23;19985;-87
2023/10/18 03:57:39;;;;;;;;;;;;;;;;;;6174880;23;19928;-87
2023/10/18 04:02:53;;;;;;;;;;;;;;;;;;6174117;23;19942;-86
2023/10/18 04:06:03;;;;;;;;;;;;;;;;;;6153158;23;20001;-87
2023/10/18 04:08:08;;;;;;;;;;;;;;;;;;6167276;23;19991;-86
2023/10/18 04:10:37;;;;;;;;;;;;;;;;;;6152111;23;20241;-86
2023/10/18 04:13:17;;;;;;;;;;;;;;;;;;6153655;23;20359;-87
2023/10/18 04:15:49;;;;;;;;;;;;;;;;;;6173179;23;19923;-87
2023/10/18 04:18:25;;;;;;;;;;;;;;;;;;6178041;23;19924;-87
2023/10/18 04:20:59;;;;;;;;;;;;;;;;;;6174599;23;19996;-87
2023/10/18 04:23:31;;;;;;;;;;;;;;;;;;6176902;23;20274;-87
2023/10/18 04:25:59;;;;;;;;;;;;;;;;;;6151532;23;20213;-87
2023/10/18 04:28:25;;;;;;;;;;;;;;;;;;6153012;23;19919;-87
2023/10/18 04:31:01;;;;;;;;;;;;;;;;;;6150513;23;19915;-88
2023/10/18 04:33:59;;;;;;;;;;;;;;;;;;;;;
2023/10/18 04:36:16;;;;;;;;;;;;;;;;;;6167631;23;19924;-87
2023/10/18 04:38:48;;;;;;;;;;;;;;;;;;6199097;23;19916;-87
2023/10/18 04:49:50;;;;;;;;;;;;;;;;;;6136671;23;19967;-88
2023/10/18 04:52:50;;;;;;;;;;;;;;;;;;6175253;23;19920;-86
2023/10/18 04:55:14;;;;;;;;;;;;;;;;;;6173273;23;19930;-87
2023/10/18 04:57:40;;;;;;;;;;;;;;;;;;6148118;23;19998;-86
2023/10/18 05:00:25;;;;;;;;;;;;;;;;;;6149446;23;19919;-87
2023/10/18 05:02:54;;;;;;;;;;;;;;;;;;6148432;23;19930;-87
2023/10/18 05:05:20;;;;;;;;;;;;;;;;;;6174631;23;20618;-87
2023/10/18 05:07:49;;;;;;;;;;;;;;;;;;6174269;23;20352;-87
2023/10/18 05:10:28;;;;;;;;;;;;;;;;;;6152050;23;19927;-87
2023/10/18 05:13:01;;;;;;;;;;;;;;;;;;6150603;23;20006;-87
2023/10/18 05:15:33;;;;;;;;;;;;;;;;;;6152799;23;19938;-87
2023/10/18 05:18:05;;;;;;;;;;;;;;;;;;6153105;23;20262;-87
2023/10/18 05:20:47;;;;;;;;;;;;;;;;;;6153798;23;19919;-87
2023/10/18 05:25:45;;;;;;;;;;;;;;;;;;6198886;23;20444;-83
2023/10/18 05:28:15;;;;;;;;;;;;;;;;;;6146690;23;19944;-85
2023/10/18 05:36:11;;;;;;;;;;;;;;;;;;6178814;23;20326;-83
2023/10/18 05:44:00;;;;;;;;;;;;;;;;;;6175269;23;19923;-84
2023/10/18 05:46:33;;;;;;;;;;;;;;;;;;6176218;23;20355;-83
2023/10/18 05:49:00;;;;;;;;;;;;;;;;;;6173679;23;20230;-83
2023/10/18 05:51:26;;;;;;;;;;;;;;;;;;6174983;23;19927;-85
2023/10/18 05:53:57;;;;;;;;;;;;;;;;;;6148291;23;19927;-87
2023/10/18 05:56:29;;;;;;;;;;;;;;;;;;6169214;23;20245;-85
2023/10/18 05:59:22;;;;;;;;;;;;;;;;;;6196883;23;19923;-89
2023/10/18 06:01:41;;;;;;;;;;;;;;;;;;6168341;23;19926;-89
2023/10/18 06:04:07;;;;;;;;;;;;;;;;;;6175883;23;19920;-89
2023/10/18 06:06:37;;;;;;;;;;;;;;;;;;6201494;23;20363;-87
2023/10/18 06:09:08;;;;;;;;;;;;;;;;;;6175724;23;20272;-87
2023/10/18 06:11:36;;;;;;;;;;;;;;;;;;6202266;23;19951;-87
2023/10/18 06:14:05;;;;;;;;;;;;;;;;;;6171526;23;19924;-91
2023/10/18 06:16:34;;;;;;;;;;;;;;;;;;6150576;23;19949;-89
2023/10/18 06:19:00;;;;;;;;;;;;;;;;;;6174334;23;19922;-89
2023/10/18 06:21:26;;;;;;;;;;;;;;;;;;6206572;23;19987;-87
2023/10/18 06:23:55;;;;;;;;;;;;;;;;;;6176776;23;20470;-87
2023/10/18 06:26:30;;;;;;;;;;;;;;;;;;6178151;23;20325;-87
2023/10/18 06:29:00;;;;;;;;;;;;;;;;;;6178449;23;20434;-87
2023/10/18 06:31:26;;;;;;;;;;;;;;;;;;6177406;23;20349;-88
2023/10/18 06:33:55;;;;;;;;;;;;;;;;;;6177067;23;19927;-88
2023/10/18 06:36:22;;;;;;;;;;;;;;;;;;6178629;23;19920;-88
2023/10/18 06:38:47;;;;;;;;;;;;;;;;;;6178172;23;19926;-88
2023/10/18 06:41:21;;;;;;;;;;;;;;;;;;6177047;23;19915;-87
2023/10/18 06:43:47;;;;;;;;;;;;;;;;;;6174433;23;19964;-88
2023/10/18 06:46:13;;;;;;;;;;;;;;;;;;6177004;23;19948;-88
2023/10/18 06:48:39;;;;;;;;;;;;;;;;;;6175651;23;19920;-88
2023/10/18 06:51:17;;;;;;;;;;;;;;;;;;6175893;23;19978;-89
2023/10/18 06:53:47;;;;;;;;;;;;;;;;;;6174280;23;19942;-89
2023/10/18 06:56:22;;;;;;;;;;;;;;;;;;6176028;23;19919;-88
2023/10/18 06:58:48;;;;;;;;;;;;;;;;;;6177996;23;20353;-89
2023/10/18 07:01:19;;;;;;;;;;;;;;;;;;6178033;23;19923;-89
2023/10/18 07:03:45;;;;;;;;;;;;;;;;;;6176158;23;19920;-89
2023/10/18 07:06:24;;;;;;;;;;;;;;;;;;6177081;23;20332;-88
2023/10/18 07:08:50;;;;;;;;;;;;;;;;;;6175442;23;19916;-89
2023/10/18 07:11:19;;;;;;;;;;;;;;;;;;6175862;23;20230;-88
2023/10/18 07:13:50;;;;;;;;;;;;;;;;;;6177144;23;20017;-87
2023/10/18 07:16:18;;;;;;;;;;;;;;;;;;6177432;23;19997;-87
2023/10/18 07:18:44;;;;;;;;;;;;;;;;;;6177293;23;19920;-87
2023/10/18 07:21:10;;;;;;;;;;;;;;;;;;6178643;23;20384;-87
2023/10/18 07:23:36;;;;;;;;;;;;;;;;;;6178375;23;19998;-87
2023/10/18 07:26:02;;;;;;;;;;;;;;;;;;6177760;23;19938;-87
2023/10/18 07:28:29;;;;;;;;;;;;;;;;;;6180908;23;19916;-87
2023/10/18 07:30:55;;;;;;;;;;;;;;;;;;6176428;23;19947;-87
2023/10/18 07:33:23;;;;;;;;;;;;;;;;;;6179263;23;19982;-87
2023/10/18 07:35:49;;;;;;;;;;;;;;;;;;6176074;23;20339;-87
2023/10/18 07:38:25;;;;;;;;;;;;;;;;;;6180357;23;20380;-87
2023/10/18 07:40:54;;;;;;;;;;;;;;;;;;6204351;23;19927;-88
2023/10/18 07:43:20;;;;;;;;;;;;;;;;;;6180456;23;20312;-87
2023/10/18 07:45:46;;;;;;;;;;;;;;;;;;6176253;23;19920;-88
2023/10/18 07:48:13;;;;;;;;;;;;;;;;;;6206053;23;20288;-87
2023/10/18 07:50:42;;;;;;;;;;;;;;;;;;6175575;23;19927;-87
2023/10/18 07:53:11;;;;;;;;;;;;;;;;;;6179586;23;19916;-88
2023/10/18 07:55:37;;;;;;;;;;;;;;;;;;6174842;23;19920;-88
2023/10/18 07:58:17;;;;;;;;;;;;;;;;;;6179839;23;20003;-88
2023/10/18 08:00:52;;;;;;;;;;;;;;;;;;6175262;23;19947;-88
2023/10/18 08:03:18;;;;;;;;;;;;;;;;;;6179572;23;19923;-88
2023/10/18 08:05:50;;;;;;;;;;;;;;;;;;6171865;23;19920;-88
2023/10/18 08:08:16;;;;;;;;;;;;;;;;;;6179324;23;19920;-88
2023/10/18 08:10:43;;;;;;;;;;;;;;;;;;6176550;23;19920;-88
2023/10/18 08:13:16;;;;;;;;;;;;;;;;;;6206359;23;19926;-88
2023/10/18 08:15:50;;;;;;;;;;;;;;;;;;6176441;23;19958;-88
2023/10/18 08:18:16;;;;;;;;;;;;;;;;;;6179483;23;19959;-88
2023/10/18 08:26:03;;;;;;;;;;;;;;;;;;6175251;23;19942;-88
2023/10/18 08:28:38;;;;;;;;;;;;;;;;;;6180042;23;19919;-88
2023/10/18 08:31:04;;;;;;;;;;;;;;;;;;6179673;23;19920;-88
2023/10/18 08:33:30;;;;;;;;;;;;;;;;;;6179266;23;20360;-89
2023/10/18 08:35:59;;;;;;;;;;;;;;;;;;6176271;23;20337;-88
2023/10/18 08:38:28;;;;;;;;;;;;;;;;;;6204379;23;19920;-88
2023/10/18 08:41:05;;;;;;;;;;;;;;;;;;6176233;23;19926;-89
2023/10/18 08:43:37;;;;;;;;;;;;;;;;;;6177052;23;20318;-88
2023/10/18 08:46:05;;;;;;;;;;;;;;;;;;6174102;23;19998;-89
2023/10/18 08:48:38;;;;;;;;;;;;;;;;;;6201637;23;19982;-89
2023/10/18 08:51:04;;;;;;;;;;;;;;;;;;6174273;23;20291;-89
2023/10/18 08:53:31;;;;;;;;;;;;;;;;;;6174417;23;20718;-89
2023/10/18 08:55:57;;;;;;;;;;;;;;;;;;6173343;23;20630;-89
2023/10/18 08:58:23;;;;;;;;;;;;;;;;;;6176590;23;19932;-90
2023/10/18 09:03:23;;;;;;;;;;;;;;;;;;6174706;23;20304;-90
2023/10/18 09:05:49;;;;;;;;;;;;;;;;;;6171894;23;19979;-90
2023/10/18 09:08:19;;;;;;;;;;;;;;;;;;6171715;23;20345;-89
2023/10/18 09:10:49;;;;;;;;;;;;;;;;;;6174773;23;19920;-90
2023/10/18 09:18:20;;;;;;;;;;;;;;;;;;6177121;23;19936;-90
2023/10/18 09:20:46;;;;;;;;;;;;;;;;;;6171609;23;19935;-90
2023/10/18 09:23:31;;;;;;;;;;;;;;;;;;6172684;23;20313;-90
2023/10/18 09:28:35;;;;;;;;;;;;;;;;;;6175057;23;20052;-89
2023/10/18 09:31:02;;;;;;;;;;;;;;;;;;6174065;23;20408;-90
2023/10/18 09:33:32;;;;;;;;;;;;;;;;;;6173445;23;19951;-90
2023/10/18 09:36:01;;;;;;;;;;;;;;;;;;6173462;23;19931;-90
2023/10/18 09:38:28;;;;;;;;;;;;;;;;;;6174640;23;20377;-89
2023/10/18 09:40:55;;;;;;;;;;;;;;;;;;6171579;23;19920;-89
2023/10/18 09:43:21;;;;;;;;;;;;;;;;;;6174607;23;19916;-89
2023/10/18 09:45:47;;;;;;;;;;;;;;;;;;6171580;23;19966;-90
2023/10/18 09:48:13;;;;;;;;;;;;;;;;;;6174841;23;19916;-89
2023/10/18 09:50:39;;;;;;;;;;;;;;;;;;6199281;23;20222;-90
2023/10/18 09:53:05;;;;;;;;;;;;;;;;;;6175257;23;19920;-90
2023/10/18 09:55:31;;;;;;;;;;;;;;;;;;6175760;23;20384;-90
2023/10/18 09:58:03;;;;;;;;;;;;;;;;;;6174123;23;20451;-90
2023/10/18 10:00:42;;;;;;;;;;;;;;;;;;6177095;23;19931;-90
2023/10/18 10:03:08;;;;;;;;;;;;;;;;;;6176586;23;19958;-90
2023/10/18 10:05:41;;;;;;;;;;;;;;;;;;6199347;23;19919;-90
2023/10/18 10:08:07;;;;;;;;;;;;;;;;;;6175477;23;20355;-90
2023/10/18 10:10:45;;;;;;;;;;;;;;;;;;6173903;23;20300;-90
2023/10/18 10:13:12;;;;;;;;;;;;;;;;;;6173445;23;20314;-89
2023/10/18 10:15:38;;;;;;;;;;;;;;;;;;6172785;23;19923;-90
2023/10/18 10:18:06;;;;;;;;;;;;;;;;;;6172375;23;20274;-90
2023/10/18 10:20:32;;;;;;;;;;;;;;;;;;6176707;23;19920;-90
2023/10/18 10:23:02;;;;;;;;;;;;;;;;;;6173274;23;19926;-90
2023/10/18 10:25:31;;;;;;;;;;;;;;;;;;6177974;23;19923;-90
2023/10/18 10:28:14;;;;;;;;;;;;;;;;;;6174391;23;20256;-90
2023/10/18 10:30:43;;;;;;;;;;;;;;;;;;6171263;23;19919;-90
2023/10/18 10:33:12;;;;;;;;;;;;;;;;;;6176034;23;19994;-90
2023/10/18 10:35:38;;;;;;;;;;;;;;;;;;6174893;23;19988;-91
2023/10/18 10:38:14;;;;;;;;;;;;;;;;;;6175996;23;19952;-90
2023/10/18 10:41:13;;;;;;;;;;;;;;;;;;6171752;23;19934;-90
2023/10/18 10:43:29;;;;;;;;;;;;;;;;;;6178969;23;19923;-90
2023/10/18 10:45:55;;;;;;;;;;;;;;;;;;6175670;23;19916;-90
2023/10/18 10:48:30;;;;;;;;;;;;;;;;;;6177751;23;20026;-90
2023/10/18 10:50:56;;;;;;;;;;;;;;;;;;6176730;23;20321;-90
2023/10/18 10:53:23;;;;;;;;;;;;;;;;;;6177309;23;19951;-91
2023/10/18 10:55:49;;;;;;;;;;;;;;;;;;6173573;23;19919;-91
2023/10/18 10:58:18;;;;;;;;;;;;;;;;;;6174288;23;20253;-90
2023/10/18 11:00:49;;;;;;;;;;;;;;;;;;6175773;23;19965;-90
2023/10/18 11:03:18;;;;;;;;;;;;;;;;;;6177953;23;19919;-90
2023/10/18 11:05:51;;;;;;;;;;;;;;;;;;6174407;23;19979;-91
2023/10/18 11:08:19;;;;;;;;;;;;;;;;;;6178417;23;20002;-90
2023/10/18 11:10:45;;;;;;;;;;;;;;;;;;6171820;23;19955;-91
2023/10/18 11:13:13;;;;;;;;;;;;;;;;;;6202072;23;19986;-91
2023/10/18 11:15:42;;;;;;;;;;;;;;;;;;6173026;23;19928;-90
2023/10/18 11:18:20;;;;;;;;;;;;;;;;;;6173847;23;19927;-91
2023/10/18 11:20:58;;;;;;;;;;;;;;;;;;6168846;23;19926;-91
2023/10/18 11:23:26;;;;;;;;;;;;;;;;;;6173883;23;19994;-91
2023/10/18 11:25:56;;;;;;;;;;;;;;;;;;6170200;23;19920;-91
2023/10/18 11:28:28;;;;;;;;;;;;;;;;;;6176013;23;20341;-90
2023/10/18 11:30:56;;;;;;;;;;;;;;;;;;6171717;23;19999;-91
2023/10/18 11:33:22;;;;;;;;;;;;;;;;;;6176170;23;20400;-91
2023/10/18 11:35:48;;;;;;;;;;;;;;;;;;6173614;23;19976;-91
2023/10/18 11:38:16;;;;;;;;;;;;;;;;;;6176649;23;19923;-91
2023/10/18 11:40:43;;;;;;;;;;;;;;;;;;6170823;23;19927;-91
2023/10/18 11:43:10;;;;;;;;;;;;;;;;;;6173090;23;20313;-91
2023/10/18 11:45:36;;;;;;;;;;;;;;;;;;6175105;23;19923;-91
2023/10/18 11:48:02;;;;;;;;;;;;;;;;;;6178470;23;19970;-91
2023/10/18 11:50:28;;;;;;;;;;;;;;;;;;6178449;23;20002;-90
2023/10/18 11:52:54;;;;;;;;;;;;;;;;;;6176672;23;19920;-90
2023/10/18 11:55:20;;;;;;;;;;;;;;;;;;6172147;23;20253;-91
2023/10/18 11:57:46;;;;;;;;;;;;;;;;;;6167287;23;20237;-91
2023/10/18 12:02:51;;;;;;;;;;;;;;;;;;6211715;23;19927;-91
2023/10/18 12:05:23;;;;;;;;;;;;;;;;;;6175529;23;19948;-90
2023/10/18 12:07:49;;;;;;;;;;;;;;;;;;6172968;23;20300;-91
2023/10/18 12:10:25;;;;;;;;;;;;;;;;;;6174289;23;19926;-92
2023/10/18 12:12:51;;;;;;;;;;;;;;;;;;6171489;23;19959;-91
2023/10/18 12:15:17;;;;;;;;;;;;;;;;;;6174283;23;19920;-92
2023/10/18 12:17:46;;;;;;;;;;;;;;;;;;6171321;23;19924;-91
2023/10/18 12:20:12;;;;;;;;;;;;;;;;;;6175247;23;19919;-92
2023/10/18 12:22:42;;;;;;;;;;;;;;;;;;6172978;23;19916;-93
2023/10/18 12:25:08;;;;;;;;;;;;;;;;;;6175811;23;20345;-91
2023/10/18 12:27:34;;;;;;;;;;;;;;;;;;6174310;23;20434;-92
2023/10/18 12:30:09;;;;;;;;;;;;;;;;;;6171932;23;19915;-91
2023/10/18 12:32:42;;;;;;;;;;;;;;;;;;6173990;23;19920;-92
2023/10/18 12:35:13;;;;;;;;;;;;;;;;;;6174030;23;20352;-91
2023/10/18 12:37:40;;;;;;;;;;;;;;;;;;6170342;23;20699;-91
2023/10/18 12:40:14;;;;;;;;;;;;;;;;;;6174606;23;19926;-92
2023/10/18 12:42:40;;;;;;;;;;;;;;;;;;6172351;23;19955;-91
2023/10/18 12:45:18;;;;;;;;;;;;;;;;;;6174575;23;19927;-89
2023/10/18 12:47:46;;;;;;;;;;;;;;;;;;6166436;23;19919;-92
2023/10/18 12:50:18;;;;;;;;;;;;;;;;;;6173605;23;20244;-93
2023/10/18 12:52:44;;;;;;;;;;;;;;;;;;6170882;23;19990;-94
2023/10/18 12:55:32;;;;;;;;;;;;;;;;;;6169775;23;20408;-92
2023/10/18 12:57:59;;;;;;;;;;;;;;;;;;6166740;23;19939;-92
2023/10/18 13:00:26;;;;;;;;;;;;;;;;;;6170634;23;20011;-93
2023/10/18 13:05:40;;;;;;;;;;;;;;;;;;6168342;23;20363;-91
2023/10/18 13:08:15;;;;;;;;;;;;;;;;;;6170879;23;19920;-91
2023/10/18 13:10:47;;;;;;;;;;;;;;;;;;6166507;23;19994;-91
2023/10/18 13:13:23;;;;;;;;;;;;;;;;;;6171861;23;19955;-90
2023/10/18 13:15:49;;;;;;;;;;;;;;;;;;6168552;23;20672;-91
2023/10/18 13:18:16;;;;;;;;;;;;;;;;;;6169957;23;19924;-91
2023/10/18 13:20:45;;;;;;;;;;;;;;;;;;6193259;23;19919;-91
2023/10/18 15:05:33;;;;;;;;;;;;;;;;;;6147314;23;19919;-87
2023/10/18 15:08:15;;;;;;;;;;;;;;;;;;6194694;23;19974;-87
2023/10/18 15:10:49;;;;;;;;;;;;;;;;;;6143345;23;20326;-87
2023/10/18 15:16:25;;;;;;;;;;;;;;;;;;6159027;23;19974;-86
2023/10/18 15:19:10;;;;;;;;;;;;;;;;;;;;;
2023/10/18 15:21:39;;;;;;;;;;;;;;;;;;6138312;23;19928;-87
2023/10/18 15:24:08;;;;;;;;;;;;;;;;;;6119427;23;19955;-87
2023/10/18 15:26:48;;;;;;;;;;;;;;;;;;;;;
2023/10/18 15:29:23;;;;;;;;;;;;;;;;;;6135445;23;19925;-87
2023/10/18 15:32:08;;;;;;;;;;;;;;;;;;;;;
2023/10/18 15:34:59;;;;;;;;;;;;;;;;;;6140048;23;19920;-87
2023/10/18 15:37:28;;;;;;;;;;;;;;;;;;6116162;23;19943;-87
2023/10/18 15:39:59;;;;;;;;;;;;;;;;;;6114595;23;19931;-87
2023/10/18 15:42:41;;;;;;;;;;;;;;;;;;6116025;23;19920;-87
2023/10/18 15:45:23;;;;;;;;;;;;;;;;;;;;;
2023/10/18 15:47:55;;;;;;;;;;;;;;;;;;6137581;23;20222;-86
2023/10/18 15:50:27;;;;;;;;;;;;;;;;;;6117330;23;19928;-87
2023/10/18 15:52:54;;;;;;;;;;;;;;;;;;6114790;23;19920;-86
2023/10/18 15:55:30;;;;;;;;;;;;;;;;;;;;;
2023/10/18 16:01:08;;;;;;;;;;;;;;;;;;6071061;23;19925;-87
2023/10/18 17:17:39;;;;;;;;;;;;;;;;;;;;;
2023/10/18 17:20:26;;;;;;;;;;;;;;;;;;6113462;23;20281;-84
2023/10/18 17:26:09;;;;;;;;;;;;;;;;;;6177074;23;20237;-84
2023/10/18 17:29:09;;;;;;;;;;;;;;;;;;;;;
2023/10/18 17:32:00;;;;;;;;;;;;;;;;;;6125543;23;19976;-85
2023/10/18 17:40:58;;;;;;;;;;;;;;;;;;;;;
2023/10/18 17:43:27;;;;;;;;;;;;;;;;;;6156049;23;20462;-85
2023/10/18 17:45:58;;;;;;;;;;;;;;;;;;6144074;23;19920;-85
2023/10/18 17:48:28;;;;;;;;;;;;;;;;;;6164882;23;19926;-85
2023/10/18 17:51:02;;;;;;;;;;;;;;;;;;6145345;23;19951;-84
2023/10/18 17:53:34;;;;;;;;;;;;;;;;;;6147644;23;19920;-85
2023/10/18 17:56:02;;;;;;;;;;;;;;;;;;6144613;23;19919;-84
2023/10/18 18:01:46;;;;;;;;;;;;;;;;;;6146315;23;19970;-85
2023/10/18 18:04:19;;;;;;;;;;;;;;;;;;6146920;23;20252;-85
2023/10/18 18:06:48;;;;;;;;;;;;;;;;;;6141375;23;19944;-85
2023/10/18 18:09:22;;;;;;;;;;;;;;;;;;6140927;23;20374;-85
2023/10/18 18:11:48;;;;;;;;;;;;;;;;;;6137921;23;20317;-86
2023/10/18 18:14:15;;;;;;;;;;;;;;;;;;6140524;23;19934;-84
2023/10/18 18:16:41;;;;;;;;;;;;;;;;;;6140910;23;19920;-86
2023/10/18 18:19:18;;;;;;;;;;;;;;;;;;6145692;23;19920;-85
2023/10/18 18:21:44;;;;;;;;;;;;;;;;;;6166328;23;19935;-85
2023/10/18 18:24:19;;;;;;;;;;;;;;;;;;6142442;23;19920;-85
2023/10/18 18:26:45;;;;;;;;;;;;;;;;;;6140537;23;19959;-85
2023/10/18 18:29:17;;;;;;;;;;;;;;;;;;6143743;23;19919;-85
2023/10/18 18:31:46;;;;;;;;;;;;;;;;;;6144950;23;20372;-86
2023/10/18 18:34:28;;;;;;;;;;;;;;;;;;6148648;23;19919;-87
2023/10/18 18:37:04;;;;;;;;;;;;;;;;;;6175301;23;19923;-86
2023/10/18 18:39:42;;;;;;;;;;;;;;;;;;6147265;23;19924;-85
2023/10/18 18:42:11;;;;;;;;;;;;;;;;;;6143855;23;19920;-87
2023/10/18 18:44:51;;;;;;;;;;;;;;;;;;6151780;23;19920;-86
2023/10/18 18:47:23;;;;;;;;;;;;;;;;;;6150748;23;19923;-86
2023/10/18 18:49:56;;;;;;;;;;;;;;;;;;6149703;23;20337;-86
2023/10/18 18:52:37;;;;;;;;;;;;;;;;;;6150511;23;19956;-86
2023/10/18 18:55:18;;;;;;;;;;;;;;;;;;6146118;23;20132;-86
2023/10/18 18:57:44;;;;;;;;;;;;;;;;;;6171545;23;19924;-86
2023/10/18 19:03:08;;;;;;;;;;;;;;;;;;6149575;23;19919;-86
2023/10/18 19:05:40;;;;;;;;;;;;;;;;;;6147638;23;19951;-86
2023/10/18 19:08:09;;;;;;;;;;;;;;;;;;6145106;23;19924;-85
2023/10/18 19:10:55;;;;;;;;;;;;;;;;;;6170190;23;20874;-86
2023/10/18 19:13:24;;;;;;;;;;;;;;;;;;6147007;23;19924;-85
2023/10/18 19:15:51;;;;;;;;;;;;;;;;;;6145070;23;19927;-85
2023/10/18 19:18:20;;;;;;;;;;;;;;;;;;6145931;23;20014;-86
2023/10/18 19:20:58;;;;;;;;;;;;;;;;;;6169668;23;20282;-85
2023/10/18 19:23:26;;;;;;;;;;;;;;;;;;6146847;23;19938;-85
2023/10/18 19:26:02;;;;;;;;;;;;;;;;;;6143481;23;19951;-85
2023/10/18 19:28:28;;;;;;;;;;;;;;;;;;6143601;23;19990;-85
2023/10/18 19:31:10;;;;;;;;;;;;;;;;;;6148212;23;19938;-85
2023/10/18 19:33:39;;;;;;;;;;;;;;;;;;6147798;23;19920;-85
2023/10/18 19:36:12;;;;;;;;;;;;;;;;;;6145498;23;19919;-85
2023/10/18 19:38:55;;;;;;;;;;;;;;;;;;;;;
2023/10/18 19:47:40;;;;;;;;;;;;;;;;;;6050172;23;20236;-86
2023/10/18 19:50:11;;;;;;;;;;;;;;;;;;6028107;23;19974;-85
2023/10/18 19:52:43;;;;;;;;;;;;;;;;;;6029118;23;19965;-86
2023/10/18 19:55:11;;;;;;;;;;;;;;;;;;6026974;23;20355;-85
2023/10/18 19:57:55;;;;;;;;;;;;;;;;;;6022440;23;19925;-85
2023/10/18 20:00:31;;;;;;;;;;;;;;;;;;6143839;23;19994;-86
2023/10/18 20:03:14;;;;;;;;;;;;;;;;;;6169469;23;20294;-85
2023/10/18 20:05:45;;;;;;;;;;;;;;;;;;6170133;23;20371;-85
2023/10/18 20:08:14;;;;;;;;;;;;;;;;;;6170933;23;20007;-85
2023/10/18 20:11:08;;;;;;;;;;;;;;;;;;;;;
2023/10/18 20:13:51;;;;;;;;;;;;;;;;;;6162586;23;19920;-86
2023/10/18 20:16:18;;;;;;;;;;;;;;;;;;6107339;23;20330;-86
2023/10/18 20:18:44;;;;;;;;;;;;;;;;;;6135949;23;19929;-86
2023/10/18 20:21:28;;;;;;;;;;;;;;;;;;6160870;23;19987;-86
2023/10/18 20:24:03;;;;;;;;;;;;;;;;;;6141519;23;19956;-85
2023/10/18 20:29:24;;;;;;;;;;;;;;;;;;6142298;23;20405;-86
2023/10/18 20:31:57;;;;;;;;;;;;;;;;;;6142368;23;19920;-86
2023/10/18 20:34:23;;;;;;;;;;;;;;;;;;6120326;23;19924;-86
2023/10/18 20:36:52;;;;;;;;;;;;;;;;;;6141458;23;19967;-85
2023/10/18 20:39:28;;;;;;;;;;;;;;;;;;6181841;23;19920;-85
2023/10/18 20:41:55;;;;;;;;;;;;;;;;;;6118476;23;20230;-85
2023/10/18 20:44:40;;;;;;;;;;;;;;;;;;6122103;23;20330;-86
2023/10/18 20:47:15;;;;;;;;;;;;;;;;;;6146193;23;20322;-85
2023/10/18 20:50:03;;;;;;;;;;;;;;;;;;;;;
2023/10/18 20:52:35;;;;;;;;;;;;;;;;;;6144138;23;19971;-86
2023/10/18 20:57:48;;;;;;;;;;;;;;;;;;6145474;23;19943;-86
2023/10/18 21:03:18;;;;;;;;;;;;;;;;;;6102612;23;19942;-86
2023/10/18 21:06:04;;;;;;;;;;;;;;;;;;6141468;23;19924;-85
2023/10/18 21:08:55;;;;;;;;;;;;;;;;;;6181548;23;19943;-86
2023/10/18 21:11:21;;;;;;;;;;;;;;;;;;6120653;23;20305;-86
2023/10/18 21:13:47;;;;;;;;;;;;;;;;;;6147555;23;19927;-86
2023/10/18 21:16:13;;;;;;;;;;;;;;;;;;6151102;23;19924;-86
2023/10/18 21:18:41;;;;;;;;;;;;;;;;;;6175039;23;19987;-85
2023/10/18 21:21:07;;;;;;;;;;;;;;;;;;6150253;23;20253;-86
2023/10/18 21:29:15;;;;;;;;;;;;;;;;;;6152586;23;20337;-86
2023/10/18 21:31:45;;;;;;;;;;;;;;;;;;6144838;23;20344;-86
2023/10/18 21:34:11;;;;;;;;;;;;;;;;;;6150577;23;20006;-85
2023/10/18 21:36:50;;;;;;;;;;;;;;;;;;;;;
2023/10/18 21:39:17;;;;;;;;;;;;;;;;;;6173303;23;19920;-86
2023/10/18 21:41:43;;;;;;;;;;;;;;;;;;6147100;23;19920;-86
2023/10/18 21:46:45;;;;;;;;;;;;;;;;;;6227039;23;19923;-88
2023/10/18 21:49:11;;;;;;;;;;;;;;;;;;6206569;23;19919;-88
2023/10/18 21:51:39;;;;;;;;;;;;;;;;;;6178430;23;19981;-89